sensor_id;sensor_type;location;lat;lon;timestamp;pressure;altitude;pressure_sealevel;temperature;humidity
11347;BME280;5728;42.722;23.258;2023-02-08T00:00:38;96321.50;;;-4.45;78.54
11347;BME280;5728;42.722;23.258;2023-02-08T00:03:05;96325.63;;;-4.72;80.66
11347;BME280;5728;42.722;23.258;2023-02-08T00:05:32;96325.47;;;-4.62;80.11
11347;BME280;5728;42.722;23.258;2023-02-08T00:07:58;96313.59;;;-4.49;80.36
11347;BME280;5728;42.722;23.258;2023-02-08T00:10:26;96318.97;;;-4.45;80.57
11347;BME280;5728;42.722;23.258;2023-02-08T00:12:53;96332.25;;;-4.61;81.18
11347;BME280;5728;42.722;23.258;2023-02-08T00:15:20;96314.41;;;-4.75;81.10
11347;BME280;5728;42.722;23.258;2023-02-08T00:17:47;96336.81;;;-4.43;80.40
11347;BME280;5728;42.722;23.258;2023-02-08T00:20:13;96336.44;;;-4.10;80.73
11347;BME280;5728;42.722;23.258;2023-02-08T00:22:40;96338.47;;;-4.05;79.61
11347;BME280;5728;42.722;23.258;2023-02-08T00:25:07;96335.97;;;-3.78;79.32
11347;BME280;5728;42.722;23.258;2023-02-08T00:27:36;96332.34;;;-3.95;78.14
11347;BME280;5728;42.722;23.258;2023-02-08T00:30:04;96338.66;;;-4.15;78.36
11347;BME280;5728;42.722;23.258;2023-02-08T00:32:31;96349.94;;;-4.23;77.85
11347;BME280;5728;42.722;23.258;2023-02-08T00:34:57;96349.66;;;-4.27;78.86
11347;BME280;5728;42.722;23.258;2023-02-08T00:37:24;96343.69;;;-4.54;79.94
11347;BME280;5728;42.722;23.258;2023-02-08T00:39:51;96343.25;;;-4.09;80.18
11347;BME280;5728;42.722;23.258;2023-02-08T00:42:18;96359.44;;;-4.07;79.19
11347;BME280;5728;42.722;23.258;2023-02-08T00:44:46;96366.53;;;-4.02;78.17
11347;BME280;5728;42.722;23.258;2023-02-08T00:47:12;96364.88;;;-4.14;79.07
11347;BME280;5728;42.722;23.258;2023-02-08T00:49:39;96362.56;;;-3.98;79.82
11347;BME280;5728;42.722;23.258;2023-02-08T00:52:06;96359.66;;;-3.91;79.86
11347;BME280;5728;42.722;23.258;2023-02-08T00:54:32;96368.50;;;-3.45;79.79
11347;BME280;5728;42.722;23.258;2023-02-08T00:56:59;96365.88;;;-4.50;78.31
11347;BME280;5728;42.722;23.258;2023-02-08T00:59:26;96365.06;;;-4.87;81.54
11347;BME280;5728;42.722;23.258;2023-02-08T01:01:54;96368.47;;;-4.24;80.59
11347;BME280;5728;42.722;23.258;2023-02-08T01:04:21;96374.78;;;-4.30;80.60
11347;BME280;5728;42.722;23.258;2023-02-08T01:06:47;96374.25;;;-3.74;81.17
11347;BME280;5728;42.722;23.258;2023-02-08T01:09:15;96359.66;;;-3.91;80.46
11347;BME280;5728;42.722;23.258;2023-02-08T01:11:41;96367.63;;;-3.98;79.06
11347;BME280;5728;42.722;23.258;2023-02-08T01:14:08;96367.63;;;-3.85;79.87
11347;BME280;5728;42.722;23.258;2023-02-08T01:16:35;96371.50;;;-4.16;79.71
11347;BME280;5728;42.722;23.258;2023-02-08T01:19:04;96372.56;;;-4.13;79.02
11347;BME280;5728;42.722;23.258;2023-02-08T01:21:32;96365.16;;;-4.23;79.56
11347;BME280;5728;42.722;23.258;2023-02-08T01:23:59;96353.88;;;-4.53;82.61
11347;BME280;5728;42.722;23.258;2023-02-08T01:26:27;96364.34;;;-4.35;81.90
11347;BME280;5728;42.722;23.258;2023-02-08T01:28:54;96334.94;;;-4.71;81.13
11347;BME280;5728;42.722;23.258;2023-02-08T01:31:23;96365.66;;;-4.28;82.05
11347;BME280;5728;42.722;23.258;2023-02-08T01:33:50;96358.56;;;-4.21;81.08
11347;BME280;5728;42.722;23.258;2023-02-08T01:36:19;96365.09;;;-4.11;80.18
11347;BME280;5728;42.722;23.258;2023-02-08T01:38:46;96367.44;;;-4.01;79.58
11347;BME280;5728;42.722;23.258;2023-02-08T01:41:14;96373.53;;;-4.24;80.42
11347;BME280;5728;42.722;23.258;2023-02-08T01:44:00;96369.00;;;-4.54;81.14
11347;BME280;5728;42.722;23.258;2023-02-08T01:46:27;96356.34;;;-4.54;80.91
11347;BME280;5728;42.722;23.258;2023-02-08T01:48:56;96377.13;;;-4.33;81.17
11347;BME280;5728;42.722;23.258;2023-02-08T01:51:28;96372.50;;;-4.01;81.44
11347;BME280;5728;42.722;23.258;2023-02-08T01:53:56;96374.22;;;-4.26;80.69
11347;BME280;5728;42.722;23.258;2023-02-08T01:56:27;96378.47;;;-4.38;80.84
11347;BME280;5728;42.722;23.258;2023-02-08T01:58:57;96382.00;;;-4.10;82.19
11347;BME280;5728;42.722;23.258;2023-02-08T02:01:26;96378.31;;;-4.02;81.74
11347;BME280;5728;42.722;23.258;2023-02-08T02:03:54;96376.50;;;-3.65;82.20
11347;BME280;5728;42.722;23.258;2023-02-08T02:06:24;96378.13;;;-3.92;82.04
11347;BME280;5728;42.722;23.258;2023-02-08T02:09:02;96381.47;;;-4.06;80.63
11347;BME280;5728;42.722;23.258;2023-02-08T02:11:30;96380.00;;;-3.76;82.35
11347;BME280;5728;42.722;23.258;2023-02-08T02:13:57;96393.91;;;-4.09;81.50
11347;BME280;5728;42.722;23.258;2023-02-08T02:16:24;96394.81;;;-4.46;81.34
11347;BME280;5728;42.722;23.258;2023-02-08T02:18:51;96398.03;;;-3.98;83.95
11347;BME280;5728;42.722;23.258;2023-02-08T02:21:33;96395.47;;;-3.85;81.84
11347;BME280;5728;42.722;23.258;2023-02-08T02:24:32;96393.44;;;-3.51;82.68
11347;BME280;5728;42.722;23.258;2023-02-08T02:27:18;96395.66;;;-3.95;81.84
11347;BME280;5728;42.722;23.258;2023-02-08T02:30:20;96397.44;;;-3.55;82.93
11347;BME280;5728;42.722;23.258;2023-02-08T02:33:01;96410.31;;;-3.65;81.42
11347;BME280;5728;42.722;23.258;2023-02-08T02:35:38;96412.09;;;-3.51;81.28
11347;BME280;5728;42.722;23.258;2023-02-08T02:38:15;96404.84;;;-3.84;81.05
11347;BME280;5728;42.722;23.258;2023-02-08T02:40:51;96410.13;;;-3.81;83.14
11347;BME280;5728;42.722;23.258;2023-02-08T02:43:22;96413.03;;;-3.62;81.34
11347;BME280;5728;42.722;23.258;2023-02-08T02:46:12;96412.84;;;-3.52;81.57
11347;BME280;5728;42.722;23.258;2023-02-08T02:48:47;96417.56;;;-3.58;82.51
11347;BME280;5728;42.722;23.258;2023-02-08T02:51:18;96415.19;;;-3.42;83.29
11347;BME280;5728;42.722;23.258;2023-02-08T02:53:51;96410.25;;;-2.99;83.33
11347;BME280;5728;42.722;23.258;2023-02-08T02:56:23;96413.06;;;-3.49;82.64
11347;BME280;5728;42.722;23.258;2023-02-08T02:58:55;96408.88;;;-2.94;82.98
11347;BME280;5728;42.722;23.258;2023-02-08T03:01:24;96406.25;;;-2.68;81.47
11347;BME280;5728;42.722;23.258;2023-02-08T03:03:53;96425.63;;;-3.50;82.54
11347;BME280;5728;42.722;23.258;2023-02-08T03:06:28;96412.84;;;-3.52;83.03
11347;BME280;5728;42.722;23.258;2023-02-08T03:09:19;96425.31;;;-3.42;83.25
11347;BME280;5728;42.722;23.258;2023-02-08T03:11:56;96418.97;;;-2.81;83.23
11347;BME280;5728;42.722;23.258;2023-02-08T03:14:33;96432.47;;;-2.82;81.26
11347;BME280;5728;42.722;23.258;2023-02-08T03:17:14;96429.53;;;-2.75;82.72
11347;BME280;5728;42.722;23.258;2023-02-08T03:19:52;96390.66;;;-2.74;83.06
11347;BME280;5728;42.722;23.258;2023-02-08T03:22:27;96420.91;;;-2.22;82.34
11347;BME280;5728;42.722;23.258;2023-02-08T03:25:02;96441.41;;;-2.19;80.44
11347;BME280;5728;42.722;23.258;2023-02-08T03:27:34;96422.13;;;-2.30;80.61
11347;BME280;5728;42.722;23.258;2023-02-08T03:30:09;96425.44;;;-2.31;79.29
11347;BME280;5728;42.722;23.258;2023-02-08T03:32:41;96426.97;;;-2.05;78.52
11347;BME280;5728;42.722;23.258;2023-02-08T03:35:14;96426.00;;;-1.92;77.28
11347;BME280;5728;42.722;23.258;2023-02-08T03:37:45;96420.78;;;-1.66;76.21
11347;BME280;5728;42.722;23.258;2023-02-08T03:40:17;96412.34;;;-1.95;75.92
11347;BME280;5728;42.722;23.258;2023-02-08T03:42:46;96419.72;;;-2.69;77.75
11347;BME280;5728;42.722;23.258;2023-02-08T03:45:16;96416.53;;;-2.24;78.36
11347;BME280;5728;42.722;23.258;2023-02-08T03:47:45;96415.66;;;-1.96;77.09
11347;BME280;5728;42.722;23.258;2023-02-08T03:50:16;96422.34;;;-1.98;78.07
11347;BME280;5728;42.722;23.258;2023-02-08T03:52:45;96416.19;;;-1.57;75.38
11347;BME280;5728;42.722;23.258;2023-02-08T03:55:16;96415.13;;;-1.46;74.79
11347;BME280;5728;42.722;23.258;2023-02-08T03:57:48;96419.69;;;-1.55;74.16
11347;BME280;5728;42.722;23.258;2023-02-08T04:00:18;96398.47;;;-1.70;73.75
11347;BME280;5728;42.722;23.258;2023-02-08T04:02:51;96413.91;;;-1.67;75.02
11347;BME280;5728;42.722;23.258;2023-02-08T04:05:21;96420.22;;;-2.05;75.49
11347;BME280;5728;42.722;23.258;2023-02-08T04:07:49;96426.09;;;-2.06;76.87
11347;BME280;5728;42.722;23.258;2023-02-08T04:10:15;96432.94;;;-2.05;77.31
11347;BME280;5728;42.722;23.258;2023-02-08T04:12:43;96427.72;;;-2.21;78.19
11347;BME280;5728;42.722;23.258;2023-02-08T04:15:11;96435.50;;;-2.47;76.46
11347;BME280;5728;42.722;23.258;2023-02-08T04:17:38;96442.53;;;-2.56;76.96
11347;BME280;5728;42.722;23.258;2023-02-08T04:20:06;96439.63;;;-2.62;76.87
11347;BME280;5728;42.722;23.258;2023-02-08T04:22:34;96427.25;;;-2.71;75.27
11347;BME280;5728;42.722;23.258;2023-02-08T04:25:01;96440.66;;;-2.45;74.59
11347;BME280;5728;42.722;23.258;2023-02-08T04:27:28;96432.41;;;-2.41;75.83
11347;BME280;5728;42.722;23.258;2023-02-08T04:29:54;96432.28;;;-2.30;75.80
11347;BME280;5728;42.722;23.258;2023-02-08T04:32:21;96440.91;;;-2.41;75.01
11347;BME280;5728;42.722;23.258;2023-02-08T04:34:48;96439.78;;;-2.31;76.04
11347;BME280;5728;42.722;23.258;2023-02-08T04:37:15;96449.25;;;-2.29;74.84
11347;BME280;5728;42.722;23.258;2023-02-08T04:39:43;96447.16;;;-2.21;73.91
11347;BME280;5728;42.722;23.258;2023-02-08T04:42:09;96453.72;;;-1.82;75.42
11347;BME280;5728;42.722;23.258;2023-02-08T04:44:36;96449.16;;;-2.03;72.34
11347;BME280;5728;42.722;23.258;2023-02-08T04:47:03;96446.72;;;-2.29;70.19
11347;BME280;5728;42.722;23.258;2023-02-08T04:49:30;96448.63;;;-2.12;68.67
11347;BME280;5728;42.722;23.258;2023-02-08T04:51:56;96455.63;;;-2.08;67.84
11347;BME280;5728;42.722;23.258;2023-02-08T04:54:23;96469.03;;;-2.38;68.46
11347;BME280;5728;42.722;23.258;2023-02-08T04:56:51;96446.00;;;-2.41;69.01
11347;BME280;5728;42.722;23.258;2023-02-08T04:59:18;96461.09;;;-2.57;73.53
11347;BME280;5728;42.722;23.258;2023-02-08T05:01:45;96482.97;;;-3.00;73.14
11347;BME280;5728;42.722;23.258;2023-02-08T05:04:12;96481.47;;;-2.83;74.14
11347;BME280;5728;42.722;23.258;2023-02-08T05:06:39;96492.16;;;-2.61;72.43
11347;BME280;5728;42.722;23.258;2023-02-08T05:09:06;96496.81;;;-2.54;71.00
11347;BME280;5728;42.722;23.258;2023-02-08T05:11:34;96499.28;;;-2.28;69.57
11347;BME280;5728;42.722;23.258;2023-02-08T05:14:03;96502.47;;;-2.45;70.01
11347;BME280;5728;42.722;23.258;2023-02-08T05:16:30;96501.56;;;-2.86;71.12
11347;BME280;5728;42.722;23.258;2023-02-08T05:18:57;96514.88;;;-2.90;72.82
11347;BME280;5728;42.722;23.258;2023-02-08T05:21:24;96512.75;;;-2.57;70.42
11347;BME280;5728;42.722;23.258;2023-02-08T05:23:51;96513.84;;;-2.66;73.39
11347;BME280;5728;42.722;23.258;2023-02-08T05:26:18;96513.69;;;-2.82;75.43
11347;BME280;5728;42.722;23.258;2023-02-08T05:28:45;96524.03;;;-3.32;74.49
11347;BME280;5728;42.722;23.258;2023-02-08T05:31:14;96515.44;;;-3.34;76.81
11347;BME280;5728;42.722;23.258;2023-02-08T05:33:42;96517.78;;;-3.24;75.05
11347;BME280;5728;42.722;23.258;2023-02-08T05:36:09;96514.97;;;-3.15;72.45
11347;BME280;5728;42.722;23.258;2023-02-08T05:38:36;96515.19;;;-2.58;76.31
11347;BME280;5728;42.722;23.258;2023-02-08T05:41:03;96498.41;;;-2.69;72.78
11347;BME280;5728;42.722;23.258;2023-02-08T05:43:30;96524.38;;;-2.47;71.80
11347;BME280;5728;42.722;23.258;2023-02-08T05:45:57;96519.13;;;-2.76;73.63
11347;BME280;5728;42.722;23.258;2023-02-08T05:48:25;96535.53;;;-2.84;76.25
11347;BME280;5728;42.722;23.258;2023-02-08T05:50:52;96485.19;;;-3.04;74.33
11347;BME280;5728;42.722;23.258;2023-02-08T05:53:18;96523.97;;;-2.53;75.98
11347;BME280;5728;42.722;23.258;2023-02-08T05:55:46;96535.91;;;-2.52;73.89
11347;BME280;5728;42.722;23.258;2023-02-08T05:58:14;96528.56;;;-2.20;72.41
11347;BME280;5728;42.722;23.258;2023-02-08T06:00:41;96535.97;;;-2.10;71.04
11347;BME280;5728;42.722;23.258;2023-02-08T06:03:08;96527.38;;;-2.12;71.77
11347;BME280;5728;42.722;23.258;2023-02-08T06:05:38;96536.19;;;-2.47;70.85
11347;BME280;5728;42.722;23.258;2023-02-08T06:08:05;96534.31;;;-2.37;71.65
11347;BME280;5728;42.722;23.258;2023-02-08T06:10:32;96526.34;;;-2.01;73.07
11347;BME280;5728;42.722;23.258;2023-02-08T06:12:59;96536.03;;;-2.08;71.21
11347;BME280;5728;42.722;23.258;2023-02-08T06:15:27;96540.81;;;-2.00;71.11
11347;BME280;5728;42.722;23.258;2023-02-08T06:17:53;96539.19;;;-1.84;69.57
11347;BME280;5728;42.722;23.258;2023-02-08T06:20:20;96549.53;;;-1.81;70.11
11347;BME280;5728;42.722;23.258;2023-02-08T06:22:48;96528.59;;;-1.77;70.23
11347;BME280;5728;42.722;23.258;2023-02-08T06:25:15;96546.22;;;-1.66;68.75
11347;BME280;5728;42.722;23.258;2023-02-08T06:27:42;96554.38;;;-1.71;68.63
11347;BME280;5728;42.722;23.258;2023-02-08T06:30:10;96535.75;;;-1.85;69.79
11347;BME280;5728;42.722;23.258;2023-02-08T06:32:37;96544.75;;;-1.48;68.50
11347;BME280;5728;42.722;23.258;2023-02-08T06:35:04;96545.63;;;-1.62;69.99
11347;BME280;5728;42.722;23.258;2023-02-08T06:37:30;96551.44;;;-1.35;69.33
11347;BME280;5728;42.722;23.258;2023-02-08T06:39:58;96555.81;;;-1.18;68.95
11347;BME280;5728;42.722;23.258;2023-02-08T06:42:26;96560.03;;;-1.04;67.62
11347;BME280;5728;42.722;23.258;2023-02-08T06:44:53;96560.44;;;-0.82;67.36
11347;BME280;5728;42.722;23.258;2023-02-08T06:47:22;96537.13;;;-1.33;68.93
11347;BME280;5728;42.722;23.258;2023-02-08T06:49:49;96564.41;;;-1.45;67.48
11347;BME280;5728;42.722;23.258;2023-02-08T06:52:16;96542.81;;;-1.66;71.35
11347;BME280;5728;42.722;23.258;2023-02-08T06:54:43;96555.59;;;-1.79;70.27
11347;BME280;5728;42.722;23.258;2023-02-08T06:57:11;96549.00;;;-1.76;69.37
11347;BME280;5728;42.722;23.258;2023-02-08T06:59:38;96570.91;;;-1.36;66.06
11347;BME280;5728;42.722;23.258;2023-02-08T07:02:05;96567.13;;;-1.13;65.65
11347;BME280;5728;42.722;23.258;2023-02-08T07:04:36;96570.19;;;-0.89;66.65
11347;BME280;5728;42.722;23.258;2023-02-08T07:07:02;96570.72;;;-0.95;65.48
11347;BME280;5728;42.722;23.258;2023-02-08T07:09:29;96567.22;;;-0.97;65.97
11347;BME280;5728;42.722;23.258;2023-02-08T07:11:56;96569.13;;;-0.93;66.09
11347;BME280;5728;42.722;23.258;2023-02-08T07:14:24;96563.50;;;-0.73;68.42
11347;BME280;5728;42.722;23.258;2023-02-08T07:16:50;96580.03;;;-0.81;67.30
11347;BME280;5728;42.722;23.258;2023-02-08T07:19:17;96580.47;;;-0.73;67.93
11347;BME280;5728;42.722;23.258;2023-02-08T07:21:44;96588.81;;;-0.76;64.31
11347;BME280;5728;42.722;23.258;2023-02-08T07:24:10;96584.72;;;-0.57;64.74
11347;BME280;5728;42.722;23.258;2023-02-08T07:26:37;96590.47;;;-1.20;64.76
11347;BME280;5728;42.722;23.258;2023-02-08T07:29:04;96586.84;;;-1.38;66.13
11347;BME280;5728;42.722;23.258;2023-02-08T07:31:32;96589.25;;;-0.97;64.46
11347;BME280;5728;42.722;23.258;2023-02-08T07:33:59;96595.56;;;-1.20;65.69
11347;BME280;5728;42.722;23.258;2023-02-08T07:36:26;96590.38;;;-0.63;68.68
11347;BME280;5728;42.722;23.258;2023-02-08T07:38:52;96601.09;;;-0.98;66.53
11347;BME280;5728;42.722;23.258;2023-02-08T07:41:19;96602.28;;;-0.62;67.32
11347;BME280;5728;42.722;23.258;2023-02-08T07:43:46;96622.25;;;-0.70;65.46
11347;BME280;5728;42.722;23.258;2023-02-08T07:46:15;96602.25;;;-0.78;64.70
11347;BME280;5728;42.722;23.258;2023-02-08T07:48:44;96610.47;;;-0.68;65.07
11347;BME280;5728;42.722;23.258;2023-02-08T07:51:11;96601.97;;;-0.37;65.83
11347;BME280;5728;42.722;23.258;2023-02-08T07:53:39;96607.78;;;-0.25;63.01
11347;BME280;5728;42.722;23.258;2023-02-08T07:56:06;96606.28;;;-0.36;65.35
11347;BME280;5728;42.722;23.258;2023-02-08T07:58:34;96599.19;;;-0.11;64.61
11347;BME280;5728;42.722;23.258;2023-02-08T08:01:01;96612.84;;;0.22;64.57
11347;BME280;5728;42.722;23.258;2023-02-08T08:03:28;96593.47;;;0.09;64.71
11347;BME280;5728;42.722;23.258;2023-02-08T08:05:56;96604.94;;;0.01;60.93
11347;BME280;5728;42.722;23.258;2023-02-08T08:08:23;96599.72;;;0.46;62.10
11347;BME280;5728;42.722;23.258;2023-02-08T08:10:50;96586.28;;;-0.45;61.47
11347;BME280;5728;42.722;23.258;2023-02-08T08:13:16;96595.94;;;-0.39;62.62
11347;BME280;5728;42.722;23.258;2023-02-08T08:15:43;96597.88;;;-0.35;65.14
11347;BME280;5728;42.722;23.258;2023-02-08T08:18:10;96585.34;;;0.48;63.43
11347;BME280;5728;42.722;23.258;2023-02-08T08:20:36;96594.06;;;0.86;61.90
11347;BME280;5728;42.722;23.258;2023-02-08T08:23:05;96590.56;;;0.84;61.37
11347;BME280;5728;42.722;23.258;2023-02-08T08:25:31;96600.72;;;1.51;58.87
11347;BME280;5728;42.722;23.258;2023-02-08T08:27:59;96596.72;;;1.56;60.08
11347;BME280;5728;42.722;23.258;2023-02-08T08:30:26;96591.75;;;1.59;60.63
11347;BME280;5728;42.722;23.258;2023-02-08T08:32:53;96599.19;;;1.72;57.55
11347;BME280;5728;42.722;23.258;2023-02-08T08:35:20;96600.16;;;1.57;56.60
11347;BME280;5728;42.722;23.258;2023-02-08T08:37:46;96604.34;;;1.91;57.51
11347;BME280;5728;42.722;23.258;2023-02-08T08:40:15;96598.13;;;2.41;58.23
11347;BME280;5728;42.722;23.258;2023-02-08T08:42:41;96594.06;;;2.65;56.14
11347;BME280;5728;42.722;23.258;2023-02-08T08:45:09;96602.75;;;2.88;57.61
11347;BME280;5728;42.722;23.258;2023-02-08T08:47:36;96597.78;;;3.11;54.06
11347;BME280;5728;42.722;23.258;2023-02-08T08:50:02;96590.09;;;3.73;52.79
11347;BME280;5728;42.722;23.258;2023-02-08T08:52:29;96595.06;;;3.07;51.43
11347;BME280;5728;42.722;23.258;2023-02-08T08:54:56;96597.16;;;3.38;58.09
11347;BME280;5728;42.722;23.258;2023-02-08T08:57:24;96591.78;;;3.11;52.93
11347;BME280;5728;42.722;23.258;2023-02-08T08:59:51;96600.53;;;3.16;51.21
11347;BME280;5728;42.722;23.258;2023-02-08T09:02:17;96602.63;;;3.88;51.42
11347;BME280;5728;42.722;23.258;2023-02-08T09:04:44;96600.91;;;3.87;51.05
11347;BME280;5728;42.722;23.258;2023-02-08T09:07:11;96608.97;;;4.40;51.37
11347;BME280;5728;42.722;23.258;2023-02-08T09:09:37;96607.13;;;4.60;49.75
11347;BME280;5728;42.722;23.258;2023-02-08T09:12:05;96609.13;;;4.45;50.81
11347;BME280;5728;42.722;23.258;2023-02-08T09:14:33;96611.69;;;4.45;48.86
11347;BME280;5728;42.722;23.258;2023-02-08T09:17:00;96602.59;;;4.09;49.04
11347;BME280;5728;42.722;23.258;2023-02-08T09:19:27;96605.91;;;4.06;47.82
11347;BME280;5728;42.722;23.258;2023-02-08T09:21:54;96614.84;;;4.38;53.26
11347;BME280;5728;42.722;23.258;2023-02-08T09:24:22;96613.03;;;4.58;50.48
11347;BME280;5728;42.722;23.258;2023-02-08T09:26:49;96596.19;;;4.20;51.46
11347;BME280;5728;42.722;23.258;2023-02-08T09:29:15;96619.19;;;3.53;48.36
11347;BME280;5728;42.722;23.258;2023-02-08T09:31:43;96618.31;;;3.11;50.29
11347;BME280;5728;42.722;23.258;2023-02-08T09:34:10;96612.91;;;3.05;51.37
11347;BME280;5728;42.722;23.258;2023-02-08T09:36:39;96615.81;;;3.75;50.89
11347;BME280;5728;42.722;23.258;2023-02-08T09:39:08;96622.78;;;4.00;51.42
11347;BME280;5728;42.722;23.258;2023-02-08T09:41:47;96614.44;;;4.27;52.74
11347;BME280;5728;42.722;23.258;2023-02-08T09:44:22;96612.41;;;3.76;51.02
11347;BME280;5728;42.722;23.258;2023-02-08T09:46:56;96618.50;;;4.44;51.49
11347;BME280;5728;42.722;23.258;2023-02-08T09:49:29;96604.91;;;4.47;48.85
11347;BME280;5728;42.722;23.258;2023-02-08T09:51:59;96602.00;;;3.94;52.03
11347;BME280;5728;42.722;23.258;2023-02-08T09:54:32;96594.78;;;4.28;48.42
11347;BME280;5728;42.722;23.258;2023-02-08T09:57:05;96599.69;;;4.22;47.17
11347;BME280;5728;42.722;23.258;2023-02-08T09:59:35;96595.16;;;4.61;48.45
11347;BME280;5728;42.722;23.258;2023-02-08T10:02:16;96584.81;;;4.35;45.71
11347;BME280;5728;42.722;23.258;2023-02-08T10:04:54;96595.03;;;4.58;45.84
11347;BME280;5728;42.722;23.258;2023-02-08T10:07:23;96590.06;;;4.16;47.59
11347;BME280;5728;42.722;23.258;2023-02-08T10:09:52;96581.03;;;2.99;50.33
11347;BME280;5728;42.722;23.258;2023-02-08T10:12:25;96587.03;;;3.82;49.63
11347;BME280;5728;42.722;23.258;2023-02-08T10:15:03;96583.28;;;4.40;53.30
11347;BME280;5728;42.722;23.258;2023-02-08T10:17:52;96573.94;;;3.98;49.62
11347;BME280;5728;42.722;23.258;2023-02-08T10:20:29;96572.59;;;3.85;46.59
11347;BME280;5728;42.722;23.258;2023-02-08T10:23:04;96579.53;;;3.88;44.03
11347;BME280;5728;42.722;23.258;2023-02-08T10:25:50;96589.38;;;2.74;45.76
11347;BME280;5728;42.722;23.258;2023-02-08T10:28:33;96587.59;;;2.35;47.72
11347;BME280;5728;42.722;23.258;2023-02-08T10:31:11;96590.19;;;2.54;49.50
11347;BME280;5728;42.722;23.258;2023-02-08T10:33:50;96583.06;;;3.27;48.16
11347;BME280;5728;42.722;23.258;2023-02-08T10:36:24;96569.75;;;3.14;48.48
11347;BME280;5728;42.722;23.258;2023-02-08T10:38:54;96589.41;;;3.15;47.73
11347;BME280;5728;42.722;23.258;2023-02-08T10:41:27;96593.25;;;2.47;49.20
11347;BME280;5728;42.722;23.258;2023-02-08T10:43:56;96587.03;;;2.99;51.13
11347;BME280;5728;42.722;23.258;2023-02-08T10:46:29;96596.47;;;3.00;47.09
11347;BME280;5728;42.722;23.258;2023-02-08T10:49:06;96589.91;;;3.28;46.75
11347;BME280;5728;42.722;23.258;2023-02-08T10:51:36;96607.81;;;2.86;47.73
11347;BME280;5728;42.722;23.258;2023-02-08T10:54:03;96593.41;;;2.31;49.32
11347;BME280;5728;42.722;23.258;2023-02-08T10:56:42;96601.75;;;1.90;49.79
11347;BME280;5728;42.722;23.258;2023-02-08T10:59:16;96594.72;;;2.23;50.93
11347;BME280;5728;42.722;23.258;2023-02-08T11:01:45;96610.69;;;1.80;51.06
11347;BME280;5728;42.722;23.258;2023-02-08T11:04:14;96612.09;;;1.22;53.91
11347;BME280;5728;42.722;23.258;2023-02-08T11:06:43;96612.50;;;1.65;53.33
11347;BME280;5728;42.722;23.258;2023-02-08T11:09:20;96610.88;;;1.32;50.67
11347;BME280;5728;42.722;23.258;2023-02-08T11:11:47;96616.34;;;1.40;52.29
11347;BME280;5728;42.722;23.258;2023-02-08T11:14:19;96601.38;;;1.29;51.55
11347;BME280;5728;42.722;23.258;2023-02-08T11:16:49;96600.00;;;1.54;53.57
11347;BME280;5728;42.722;23.258;2023-02-08T11:19:26;96604.84;;;1.65;52.82
11347;BME280;5728;42.722;23.258;2023-02-08T11:21:56;96637.50;;;1.19;52.54
11347;BME280;5728;42.722;23.258;2023-02-08T11:24:27;96621.41;;;1.04;53.37
11347;BME280;5728;42.722;23.258;2023-02-08T11:26:55;96609.94;;;0.96;55.53
11347;BME280;5728;42.722;23.258;2023-02-08T11:29:23;96612.47;;;0.96;57.03
11347;BME280;5728;42.722;23.258;2023-02-08T11:31:59;96588.19;;;1.38;54.51
11347;BME280;5728;42.722;23.258;2023-02-08T11:34:29;96616.31;;;1.56;53.34
11347;BME280;5728;42.722;23.258;2023-02-08T11:36:58;96608.28;;;2.20;52.90
11347;BME280;5728;42.722;23.258;2023-02-08T11:39:29;96599.56;;;2.17;52.60
11347;BME280;5728;42.722;23.258;2023-02-08T11:41:59;96613.81;;;2.68;51.19
11347;BME280;5728;42.722;23.258;2023-02-08T11:44:30;96613.16;;;2.72;50.28
11347;BME280;5728;42.722;23.258;2023-02-08T11:47:00;96602.50;;;3.02;49.01
11347;BME280;5728;42.722;23.258;2023-02-08T11:49:35;96608.06;;;3.11;48.76
11347;BME280;5728;42.722;23.258;2023-02-08T11:52:03;96614.06;;;3.12;47.80
11347;BME280;5728;42.722;23.258;2023-02-08T11:54:36;96613.16;;;3.73;47.54
11347;BME280;5728;42.722;23.258;2023-02-08T11:57:16;96602.94;;;2.92;48.19
11347;BME280;5728;42.722;23.258;2023-02-08T11:59:45;96617.38;;;2.90;48.03
11347;BME280;5728;42.722;23.258;2023-02-08T12:02:31;96603.94;;;3.36;47.58
11347;BME280;5728;42.722;23.258;2023-02-08T12:05:03;96614.34;;;2.61;48.38
11347;BME280;5728;42.722;23.258;2023-02-08T12:07:44;96611.81;;;2.61;48.34
11347;BME280;5728;42.722;23.258;2023-02-08T12:13:19;96628.03;;;2.61;49.06
11347;BME280;5728;42.722;23.258;2023-02-08T12:15:58;96621.94;;;3.16;48.52
11347;BME280;5728;42.722;23.258;2023-02-08T12:18:46;96620.00;;;2.34;49.31
11347;BME280;5728;42.722;23.258;2023-02-08T12:21:20;96615.44;;;2.66;48.89
11347;BME280;5728;42.722;23.258;2023-02-08T12:23:51;96607.50;;;2.79;50.20
11347;BME280;5728;42.722;23.258;2023-02-08T12:26:30;96606.13;;;3.27;48.02
11347;BME280;5728;42.722;23.258;2023-02-08T12:29:07;96600.06;;;3.88;46.99
11347;BME280;5728;42.722;23.258;2023-02-08T12:31:50;96603.44;;;3.65;45.20
11347;BME280;5728;42.722;23.258;2023-02-08T12:34:21;96591.41;;;3.64;46.96
11347;BME280;5728;42.722;23.258;2023-02-08T12:37:17;96597.91;;;3.35;45.66
11347;BME280;5728;42.722;23.258;2023-02-08T12:40:16;96608.34;;;3.60;45.64
11347;BME280;5728;42.722;23.258;2023-02-08T12:43:06;96590.59;;;4.08;43.01
11347;BME280;5728;42.722;23.258;2023-02-08T12:45:56;96612.19;;;3.70;45.35
11347;BME280;5728;42.722;23.258;2023-02-08T12:48:36;96604.94;;;3.60;42.16
11347;BME280;5728;42.722;23.258;2023-02-08T12:51:14;96605.16;;;3.45;42.79
11347;BME280;5728;42.722;23.258;2023-02-08T12:53:48;96603.66;;;3.71;41.94
11347;BME280;5728;42.722;23.258;2023-02-08T12:56:19;96611.22;;;3.68;42.86
11347;BME280;5728;42.722;23.258;2023-02-08T12:58:50;96604.31;;;3.45;43.21
11347;BME280;5728;42.722;23.258;2023-02-08T13:01:21;96616.00;;;3.59;41.68
11347;BME280;5728;42.722;23.258;2023-02-08T13:03:51;96620.81;;;3.51;42.25
11347;BME280;5728;42.722;23.258;2023-02-08T13:06:23;96602.47;;;4.06;41.42
11347;BME280;5728;42.722;23.258;2023-02-08T13:08:56;96612.94;;;2.48;42.36
11347;BME280;5728;42.722;23.258;2023-02-08T13:11:31;96627.91;;;1.67;45.58
11347;BME280;5728;42.722;23.258;2023-02-08T13:14:02;96642.09;;;1.96;45.52
11347;BME280;5728;42.722;23.258;2023-02-08T13:16:31;96633.00;;;1.84;45.10
11347;BME280;5728;42.722;23.258;2023-02-08T13:19:17;96633.69;;;2.73;44.55
11347;BME280;5728;42.722;23.258;2023-02-08T13:21:47;96599.97;;;1.89;43.55
11347;BME280;5728;42.722;23.258;2023-02-08T13:24:24;96639.94;;;2.05;45.63